createdAt,value
2016-12-07T00:01:01.385Z,1027.4
2016-12-07T00:02:12.366Z,1027.38
2016-12-07T00:03:23.337Z,1027.32
2016-12-07T00:04:34.309Z,1027.33
2016-12-07T00:05:45.497Z,1027.35
2016-12-07T00:06:56.729Z,1027.36
2016-12-07T00:08:07.734Z,1027.32
2016-12-07T00:09:18.711Z,1027.33
2016-12-07T00:10:29.695Z,1027.33
2016-12-07T00:11:40.882Z,1027.26
2016-12-07T00:12:51.940Z,1027.34
2016-12-07T00:14:02.919Z,1027.3
2016-12-07T00:15:13.893Z,1027.37
2016-12-07T00:16:24.880Z,1027.37
2016-12-07T00:17:36.069Z,1027.39
2016-12-07T00:18:47.109Z,1027.38
2016-12-07T00:19:58.092Z,1027.32
2016-12-07T00:21:09.279Z,1027.28
2016-12-07T00:22:20.259Z,1027.24
2016-12-07T00:23:31.437Z,1027.22
2016-12-07T00:24:42.467Z,1027.15
2016-12-07T00:25:53.447Z,1027.14
2016-12-07T00:27:04.427Z,1027.15
2016-12-07T00:28:15.408Z,1027.12
2016-12-07T00:29:26.386Z,1027.13
2016-12-07T00:30:37.411Z,1027.11
2016-12-07T00:31:48.399Z,1027.16
2016-12-07T00:32:59.385Z,1027.19
2016-12-07T00:34:10.570Z,1027.19
2016-12-07T00:35:21.554Z,1027.19
2016-12-07T00:36:32.788Z,1027.18
2016-12-07T00:37:43.767Z,1027.16
2016-12-07T00:38:54.767Z,1027.18
2016-12-07T00:40:05.764Z,1027.11
2016-12-07T00:41:16.750Z,1027.04
2016-12-07T00:42:27.780Z,1027.07
2016-12-07T00:43:38.760Z,1027.02
2016-12-07T00:44:49.734Z,1027.07
2016-12-07T00:46:00.723Z,1027.03
2016-12-07T00:47:11.720Z,1027.04
2016-12-07T00:48:22.760Z,1027.09
2016-12-07T00:49:33.772Z,1027.09
2016-12-07T00:50:44.755Z,1027.15
2016-12-07T00:51:55.768Z,1027.15
2016-12-07T00:53:06.749Z,1027.1
2016-12-07T00:54:17.979Z,1027.09
2016-12-07T00:55:28.963Z,1027.11
2016-12-07T00:56:39.948Z,1027.08
2016-12-07T00:57:50.926Z,1027.09
2016-12-07T00:59:02.107Z,1027.02
2016-12-07T01:00:13.129Z,1027.02
2016-12-07T01:01:24.108Z,1026.99
2016-12-07T01:02:35.099Z,1027.05
2016-12-07T01:03:46.113Z,1027
2016-12-07T01:04:57.105Z,1027.02
2016-12-07T01:06:08.155Z,1026.99
2016-12-07T01:07:19.372Z,1027
2016-12-07T01:08:30.359Z,1027
2016-12-07T01:09:41.349Z,1026.96
2016-12-07T01:10:52.538Z,1026.98
2016-12-07T01:12:03.581Z,1027
2016-12-07T01:13:14.569Z,1027.04
2016-12-07T01:14:25.556Z,1027.06
2016-12-07T01:15:36.760Z,1027.04
2016-12-07T01:16:47.754Z,1027.09
2016-12-07T01:17:58.791Z,1027.1
2016-12-07T01:19:09.788Z,1027.14
2016-12-07T01:20:20.781Z,1027.16
2016-12-07T01:21:31.773Z,1027.18
2016-12-07T01:22:42.771Z,1027.14
2016-12-07T01:23:53.814Z,1027.16
2016-12-07T01:25:04.807Z,1027.12
2016-12-07T01:26:15.807Z,1027.07
2016-12-07T01:27:27.000Z,1027.07
2016-12-07T01:28:37.993Z,1027.02
2016-12-07T01:29:49.029Z,1026.99
2016-12-07T01:31:00.227Z,1027.01
2016-12-07T01:32:11.225Z,1027
2016-12-07T01:33:22.217Z,1027.01
2016-12-07T01:34:33.200Z,1027.04
2016-12-07T01:35:44.268Z,1027.04
2016-12-07T01:36:55.257Z,1027.07
2016-12-07T01:38:06.252Z,1027.11
2016-12-07T01:39:17.235Z,1027.11
2016-12-07T01:40:28.225Z,1027.1
2016-12-07T01:41:39.468Z,1027.17
2016-12-07T01:42:50.464Z,1027.18
2016-12-07T01:44:01.470Z,1027.25
2016-12-07T01:45:12.466Z,1027.2
2016-12-07T01:46:23.451Z,1027.18
2016-12-07T01:47:34.495Z,1027.19
2016-12-07T01:48:45.684Z,1027.15
2016-12-07T01:49:56.691Z,1027.18
2016-12-07T01:51:07.683Z,1027.21
2016-12-07T01:52:18.678Z,1027.27
2016-12-07T01:53:29.925Z,1027.34
2016-12-07T01:54:40.939Z,1027.31
2016-12-07T01:55:51.932Z,1027.35
2016-12-07T01:57:02.925Z,1027.28
2016-12-07T01:58:13.912Z,1027.26
2016-12-07T01:59:24.956Z,1027.26
2016-12-07T02:00:35.947Z,1027.26
2016-12-07T02:01:46.936Z,1027.27
2016-12-07T02:02:58.159Z,1027.29
2016-12-07T02:04:09.149Z,1027.29
2016-12-07T02:05:20.186Z,1027.3
2016-12-07T02:06:31.385Z,1027.32
2016-12-07T02:07:42.380Z,1027.31
2016-12-07T02:08:53.369Z,1027.29
2016-12-07T02:10:04.350Z,1027.3
2016-12-07T02:11:15.382Z,1027.24
2016-12-07T02:12:26.564Z,1027.23
2016-12-07T02:13:37.540Z,1027.2
2016-12-07T02:14:48.531Z,1027.2
2016-12-07T02:15:59.518Z,1027.17
2016-12-07T02:17:10.549Z,1027.16
2016-12-07T02:18:21.543Z,1027.17
2016-12-07T02:19:32.537Z,1027.14
2016-12-07T02:20:43.522Z,1027.17
2016-12-07T02:21:54.529Z,1027.21
2016-12-07T02:23:05.572Z,1027.23
2016-12-07T02:24:16.557Z,1027.21
2016-12-07T02:25:27.551Z,1027.16
2016-12-07T02:26:38.533Z,1027.16
2016-12-07T02:27:49.514Z,1027.1
2016-12-07T02:29:00.555Z,1027.09
2016-12-07T02:30:11.537Z,1027.08
2016-12-07T02:31:22.514Z,1027.07
2016-12-07T02:32:33.696Z,1027.1
2016-12-07T02:33:44.675Z,1027.08
2016-12-07T02:34:55.905Z,1027.04
2016-12-07T02:36:06.891Z,1027.01
2016-12-07T02:37:17.884Z,1027.02
2016-12-07T02:38:28.874Z,1027.02
2016-12-07T02:39:39.863Z,1026.99
2016-12-07T02:40:50.895Z,1027.01
2016-12-07T02:42:01.873Z,1026.95
2016-12-07T02:43:13.082Z,1027
2016-12-07T02:44:24.066Z,1027
2016-12-07T02:45:35.250Z,1027.03
2016-12-07T02:46:46.481Z,1027.07
2016-12-07T02:47:57.461Z,1027.1
2016-12-07T02:49:08.444Z,1027.11
2016-12-07T02:50:19.422Z,1027.14
2016-12-07T02:51:30.405Z,1027.1
2016-12-07T02:52:41.445Z,1027.06
2016-12-07T02:53:52.429Z,1027.06
2016-12-07T02:55:03.412Z,1027.06
2016-12-07T02:56:14.419Z,1027.04
2016-12-07T02:57:25.408Z,1027.01
2016-12-07T02:58:36.441Z,1027.07
2016-12-07T02:59:47.418Z,1027.06
2016-12-07T03:00:58.400Z,1027.05
2016-12-07T03:02:09.588Z,1027.07
2016-12-07T03:03:20.768Z,1027.06
2016-12-07T03:04:31.805Z,1027.07
2016-12-07T03:05:42.793Z,1027.05
2016-12-07T03:06:53.768Z,1027.05
2016-12-07T03:08:04.748Z,1027.03
2016-12-07T03:09:15.724Z,1027.01
2016-12-07T03:10:26.763Z,1026.97
2016-12-07T03:11:37.752Z,1026.98
2016-12-07T03:12:48.734Z,1026.94
2016-12-07T03:13:59.719Z,1026.94
2016-12-07T03:15:10.711Z,1026.95
2016-12-07T03:16:21.746Z,1026.94
2016-12-07T03:17:32.729Z,1026.91
2016-12-07T03:18:43.717Z,1026.88
2016-12-07T03:19:54.704Z,1026.88
2016-12-07T03:21:05.885Z,1026.86
2016-12-07T03:22:16.915Z,1026.83
2016-12-07T03:23:27.905Z,1026.83
2016-12-07T03:24:38.888Z,1026.84
2016-12-07T03:25:49.868Z,1026.84
2016-12-07T03:27:01.250Z,1026.84
2016-12-07T03:28:12.491Z,1026.84
2016-12-07T03:29:23.682Z,1026.83
2016-12-07T03:30:34.665Z,1026.83
2016-12-07T03:31:45.646Z,1026.82
2016-12-07T03:32:56.629Z,1026.77
2016-12-07T03:34:07.662Z,1026.73
2016-12-07T03:35:18.640Z,1026.75
2016-12-07T03:36:29.612Z,1026.69
2016-12-07T03:37:40.793Z,1026.66
2016-12-07T03:38:51.785Z,1026.67
2016-12-07T03:40:03.015Z,1026.69
2016-12-07T03:41:13.997Z,1026.68
2016-12-07T03:42:24.975Z,1026.65
2016-12-07T03:43:36.156Z,1026.66
2016-12-07T03:44:47.143Z,1026.59
2016-12-07T03:45:58.205Z,1026.61
2016-12-07T03:47:09.193Z,1026.63
2016-12-07T03:48:20.377Z,1026.58
2016-12-07T03:49:31.364Z,1026.61
2016-12-07T03:50:42.357Z,1026.6
2016-12-07T03:51:53.397Z,1026.6
2016-12-07T03:53:04.388Z,1026.61
2016-12-07T03:54:15.373Z,1026.59
2016-12-07T03:55:26.357Z,1026.63
2016-12-07T03:56:37.543Z,1026.6
2016-12-07T03:57:48.567Z,1026.61
2016-12-07T03:58:59.549Z,1026.62
2016-12-07T04:00:10.532Z,1026.56
2016-12-07T04:01:21.544Z,1026.57
2016-12-07T04:02:32.534Z,1026.54
2016-12-07T04:03:43.575Z,1026.51
2016-12-07T04:04:54.556Z,1026.51
2016-12-07T04:06:05.544Z,1026.51
2016-12-07T04:07:16.525Z,1026.51
2016-12-07T04:08:27.523Z,1026.48
2016-12-07T04:09:38.555Z,1026.47
2016-12-07T04:10:49.545Z,1026.42
2016-12-07T04:12:00.532Z,1026.42
2016-12-07T04:13:11.516Z,1026.36
2016-12-07T04:14:22.700Z,1026.35
2016-12-07T04:15:33.724Z,1026.36
2016-12-07T04:16:44.707Z,1026.35
2016-12-07T04:17:55.891Z,1026.32
2016-12-07T04:19:06.887Z,1026.3
2016-12-07T04:20:17.872Z,1026.29
2016-12-07T04:21:28.905Z,1026.27
2016-12-07T04:22:39.888Z,1026.26
2016-12-07T04:23:51.073Z,1026.22
2016-12-07T04:25:02.065Z,1026.24
2016-12-07T04:26:13.057Z,1026.2
2016-12-07T04:27:24.094Z,1026.24
2016-12-07T04:28:35.079Z,1026.21
2016-12-07T04:29:46.055Z,1026.21
2016-12-07T04:30:57.035Z,1026.17
2016-12-07T04:32:08.018Z,1026.13
2016-12-07T04:33:19.056Z,1026.13
2016-12-07T04:34:30.238Z,1026.11
2016-12-07T04:35:41.221Z,1026.09
2016-12-07T04:36:52.232Z,1026.05
2016-12-07T04:38:03.220Z,1026.07
2016-12-07T04:39:14.254Z,1026.07
2016-12-07T04:40:25.452Z,1026.06
2016-12-07T04:41:36.431Z,1026.02
2016-12-07T04:42:47.417Z,1026.05
2016-12-07T04:43:58.401Z,1026
2016-12-07T04:45:09.428Z,1026.04
2016-12-07T04:46:20.410Z,1026.03
2016-12-07T04:47:31.393Z,1026.04
2016-12-07T04:48:42.389Z,1026.02
2016-12-07T04:49:53.369Z,1026
2016-12-07T04:51:04.406Z,1026
2016-12-07T04:52:15.389Z,1025.99
2016-12-07T04:53:26.375Z,1026.01
2016-12-07T04:54:37.757Z,1026.01
2016-12-07T04:55:48.736Z,1025.97
2016-12-07T04:56:59.761Z,1026.02
2016-12-07T04:58:10.948Z,1025.99
2016-12-07T04:59:21.928Z,1026.02
2016-12-07T05:00:32.902Z,1026.02
2016-12-07T05:01:43.891Z,1026.01
2016-12-07T05:02:54.929Z,1025.98
2016-12-07T05:04:06.123Z,1025.98
2016-12-07T05:05:17.097Z,1026.01
2016-12-07T05:06:28.078Z,1026.05
2016-12-07T05:07:39.053Z,1026.05
2016-12-07T05:08:50.314Z,1026.05
2016-12-07T05:10:01.292Z,1026.03
2016-12-07T05:11:12.275Z,1026.01
2016-12-07T05:12:23.258Z,1026.02
2016-12-07T05:13:34.241Z,1025.97
2016-12-07T05:14:45.279Z,1025.93
2016-12-07T05:15:56.253Z,1025.93
2016-12-07T05:17:07.236Z,1025.9
2016-12-07T05:18:18.219Z,1025.9
2016-12-07T05:19:29.241Z,1025.92
2016-12-07T05:20:40.473Z,1025.85
2016-12-07T05:21:51.460Z,1025.84
2016-12-07T05:23:02.447Z,1025.78
2016-12-07T05:24:13.430Z,1025.83
2016-12-07T05:25:24.415Z,1025.78
2016-12-07T05:26:35.446Z,1025.8
2016-12-07T05:27:46.434Z,1025.79
2016-12-07T05:28:57.419Z,1025.75
2016-12-07T05:30:08.605Z,1025.7
2016-12-07T05:31:19.584Z,1025.75
2016-12-07T05:32:30.620Z,1025.79
2016-12-07T05:33:41.604Z,1025.84
2016-12-07T05:34:52.588Z,1025.8
2016-12-07T05:36:03.572Z,1025.79
2016-12-07T05:37:14.547Z,1025.84
2016-12-07T05:38:25.580Z,1025.84
2016-12-07T05:39:36.567Z,1025.82
2016-12-07T05:40:47.543Z,1025.82
2016-12-07T05:41:58.526Z,1025.79
2016-12-07T05:43:09.504Z,1025.77
2016-12-07T05:44:20.542Z,1025.79
2016-12-07T05:45:31.522Z,1025.86
2016-12-07T05:46:42.503Z,1025.88
2016-12-07T05:47:53.688Z,1025.86
2016-12-07T05:49:04.680Z,1025.81
2016-12-07T05:50:15.714Z,1025.78
2016-12-07T05:51:26.699Z,1025.79
2016-12-07T05:52:37.886Z,1025.78
2016-12-07T05:53:49.082Z,1025.79
2016-12-07T05:55:00.064Z,1025.84
2016-12-07T05:56:11.099Z,1025.83
2016-12-07T05:57:22.088Z,1025.78
2016-12-07T05:58:33.270Z,1025.81
2016-12-07T05:59:44.253Z,1025.84
2016-12-07T06:00:55.234Z,1025.77
2016-12-07T06:02:06.272Z,1025.79
2016-12-07T06:03:17.248Z,1025.81
2016-12-07T06:04:28.231Z,1025.8
2016-12-07T06:05:39.412Z,1025.8
2016-12-07T06:06:50.395Z,1025.8
2016-12-07T06:08:01.456Z,1025.79
2016-12-07T06:09:12.434Z,1025.8
2016-12-07T06:10:23.625Z,1025.79
2016-12-07T06:11:34.633Z,1025.81
2016-12-07T06:12:45.614Z,1025.78
2016-12-07T06:13:56.648Z,1025.81
2016-12-07T06:15:07.832Z,1025.76
2016-12-07T06:16:18.814Z,1025.74
2016-12-07T06:17:29.999Z,1025.74
2016-12-07T06:18:41.188Z,1025.73
2016-12-07T06:19:52.219Z,1025.72
2016-12-07T06:21:03.200Z,1025.71
2016-12-07T06:22:14.171Z,1025.73
2016-12-07T06:23:25.151Z,1025.71
2016-12-07T06:24:36.133Z,1025.75
2016-12-07T06:25:47.365Z,1025.77
2016-12-07T06:26:58.544Z,1025.73
2016-12-07T06:28:09.524Z,1025.79
2016-12-07T06:29:20.510Z,1025.78
2016-12-07T06:30:31.502Z,1025.81
2016-12-07T06:31:42.531Z,1025.82
2016-12-07T06:32:53.715Z,1025.8
2016-12-07T06:34:04.689Z,1025.83
2016-12-07T06:35:15.672Z,1025.8
2016-12-07T06:36:26.680Z,1025.81
2016-12-07T06:37:37.709Z,1025.81
2016-12-07T06:38:48.693Z,1025.78
2016-12-07T06:39:59.672Z,1025.79
2016-12-07T06:41:10.875Z,1025.8
2016-12-07T06:42:21.864Z,1025.84
2016-12-07T06:43:32.898Z,1025.83
2016-12-07T06:44:43.885Z,1025.82
2016-12-07T06:45:54.869Z,1025.82
2016-12-07T06:47:05.860Z,1025.76
2016-12-07T06:48:16.843Z,1025.75
2016-12-07T06:49:27.874Z,1025.72
2016-12-07T06:50:38.863Z,1025.69
2016-12-07T06:51:50.039Z,1025.61
2016-12-07T06:53:01.028Z,1025.67
2016-12-07T06:54:12.012Z,1025.7
2016-12-07T06:55:23.051Z,1025.67
2016-12-07T06:56:34.232Z,1025.71
2016-12-07T06:57:45.215Z,1025.72
2016-12-07T06:58:56.199Z,1025.72
2016-12-07T07:00:07.183Z,1025.73
2016-12-07T07:01:18.165Z,1025.73
2016-12-07T07:02:29.147Z,1025.78
2016-12-07T07:03:40.129Z,1025.76
2016-12-07T07:04:51.111Z,1025.74
2016-12-07T07:06:02.303Z,1025.79
2016-12-07T07:07:13.289Z,1025.8
2016-12-07T07:08:24.271Z,1025.8
2016-12-07T07:09:35.281Z,1025.78
2016-12-07T07:10:46.302Z,1025.78
2016-12-07T07:11:57.314Z,1025.78
2016-12-07T07:13:08.488Z,1025.77
2016-12-07T07:14:19.677Z,1025.78
2016-12-07T07:15:30.660Z,1025.76
2016-12-07T07:16:41.645Z,1025.73
2016-12-07T07:17:52.632Z,1025.74
2016-12-07T07:19:03.614Z,1025.77
2016-12-07T07:20:14.608Z,1025.71
2016-12-07T07:21:25.596Z,1025.76
2016-12-07T07:22:36.583Z,1025.73
2016-12-07T07:23:47.579Z,1025.72
2016-12-07T07:24:58.560Z,1025.76
2016-12-07T07:26:09.576Z,1025.79
2016-12-07T07:27:20.558Z,1025.79
2016-12-07T07:28:31.537Z,1025.82
2016-12-07T07:29:42.514Z,1025.85
2016-12-07T07:30:53.500Z,1025.89
2016-12-07T07:32:04.487Z,1025.93
2016-12-07T07:33:15.465Z,1025.9
2016-12-07T07:34:26.446Z,1025.95
2016-12-07T07:35:37.438Z,1025.9
2016-12-07T07:36:48.418Z,1025.92
2016-12-07T07:37:59.402Z,1025.93
2016-12-07T07:39:10.395Z,1025.99
2016-12-07T07:40:21.385Z,1026
2016-12-07T07:41:32.366Z,1026.05
2016-12-07T07:42:43.352Z,1026.04
2016-12-07T07:43:54.339Z,1026.05
2016-12-07T07:45:05.379Z,1026.05
2016-12-07T07:46:16.363Z,1026.07
2016-12-07T07:47:27.356Z,1026.05
2016-12-07T07:48:38.546Z,1026.08
2016-12-07T07:49:49.526Z,1026.07
2016-12-07T07:51:00.561Z,1026.06
2016-12-07T07:52:11.741Z,1026.08
2016-12-07T07:53:22.718Z,1026.08
2016-12-07T07:54:33.701Z,1026.09
2016-12-07T07:55:44.684Z,1026.1
2016-12-07T07:56:55.739Z,1026.12
2016-12-07T07:58:06.725Z,1026.15
2016-12-07T07:59:17.743Z,1026.11
2016-12-07T08:00:28.729Z,1026.13
2016-12-07T08:01:39.712Z,1026.07
2016-12-07T08:02:50.738Z,1026.03
2016-12-07T08:04:01.725Z,1025.97
2016-12-07T08:05:12.709Z,1025.96
2016-12-07T08:06:23.687Z,1025.97
2016-12-07T08:07:34.673Z,1025.94
2016-12-07T08:08:45.744Z,1025.94
2016-12-07T08:09:56.734Z,1025.95
2016-12-07T08:11:07.709Z,1025.97
2016-12-07T08:12:18.693Z,1026.02
2016-12-07T08:13:29.684Z,1026.01
2016-12-07T08:14:40.952Z,1026.04
2016-12-07T08:15:52.132Z,1026
2016-12-07T08:17:03.312Z,1026.02
2016-12-07T08:18:14.301Z,1026.05
2016-12-07T08:19:25.281Z,1026
2016-12-07T08:20:36.306Z,1025.96
2016-12-07T08:21:47.491Z,1025.93
2016-12-07T08:22:58.481Z,1025.95
2016-12-07T08:24:09.471Z,1025.97
2016-12-07T08:25:20.460Z,1025.92
2016-12-07T08:26:31.497Z,1025.95
2016-12-07T08:27:42.480Z,1025.96
2016-12-07T08:28:53.473Z,1025.96
2016-12-07T08:30:04.453Z,1025.97
2016-12-07T08:31:15.642Z,1025.99
2016-12-07T08:32:26.679Z,1026.02
2016-12-07T08:33:37.659Z,1026.05
2016-12-07T08:34:48.643Z,1026.03
2016-12-07T08:35:59.630Z,1026.01
2016-12-07T08:37:10.636Z,1026.04
2016-12-07T08:38:21.662Z,1026.04
2016-12-07T08:39:32.652Z,1026.11
2016-12-07T08:40:43.843Z,1026.14
2016-12-07T08:41:54.824Z,1026.17
2016-12-07T08:43:05.809Z,1026.21
2016-12-07T08:44:16.843Z,1026.18
2016-12-07T08:45:27.833Z,1026.2
2016-12-07T08:46:39.019Z,1026.21
2016-12-07T08:47:50.203Z,1026.18
2016-12-07T08:49:01.187Z,1026.18
2016-12-07T08:50:12.213Z,1026.22
2016-12-07T08:51:23.188Z,1026.24
2016-12-07T08:52:34.168Z,1026.2
2016-12-07T08:53:45.146Z,1026.2
2016-12-07T08:54:56.124Z,1026.18
2016-12-07T08:56:07.158Z,1026.22
2016-12-07T08:57:18.132Z,1026.21
2016-12-07T08:58:29.111Z,1026.22
2016-12-07T08:59:40.315Z,1026.26
2016-12-07T09:00:51.297Z,1026.27
2016-12-07T09:02:02.330Z,1026.29
2016-12-07T09:03:13.511Z,1026.28
2016-12-07T09:04:24.690Z,1026.33
2016-12-07T09:05:35.678Z,1026.33
2016-12-07T09:06:46.861Z,1026.33
2016-12-07T09:07:57.901Z,1026.34
2016-12-07T09:09:08.887Z,1026.4
2016-12-07T09:10:19.898Z,1026.45
2016-12-07T09:11:30.912Z,1026.41
2016-12-07T09:12:41.894Z,1026.38
2016-12-07T09:13:52.923Z,1026.35
2016-12-07T09:15:03.904Z,1026.29
2016-12-07T09:16:14.882Z,1026.29
2016-12-07T09:17:25.872Z,1026.25
2016-12-07T09:18:37.060Z,1026.23
2016-12-07T09:19:48.293Z,1026.24
2016-12-07T09:20:59.278Z,1026.29
2016-12-07T09:22:10.260Z,1026.3
2016-12-07T09:23:21.248Z,1026.33
2016-12-07T09:24:32.237Z,1026.33
2016-12-07T09:25:43.273Z,1026.36
2016-12-07T09:26:54.262Z,1026.35
2016-12-07T09:28:05.259Z,1026.31
2016-12-07T09:29:16.241Z,1026.28
2016-12-07T09:30:27.230Z,1026.28
2016-12-07T09:31:38.263Z,1026.31
2016-12-07T09:32:49.252Z,1026.29
2016-12-07T09:34:00.436Z,1026.29
2016-12-07T09:35:11.615Z,1026.31
2016-12-07T09:36:22.602Z,1026.39
2016-12-07T09:37:33.633Z,1026.36
2016-12-07T09:38:44.620Z,1026.33
2016-12-07T09:39:55.612Z,1026.33
2016-12-07T09:41:06.792Z,1026.36
2016-12-07T09:42:17.782Z,1026.38
2016-12-07T09:43:29.029Z,1026.35
2016-12-07T09:44:40.219Z,1026.38
2016-12-07T09:45:51.201Z,1026.43
2016-12-07T09:47:02.192Z,1026.43
2016-12-07T09:48:13.384Z,1026.39
2016-12-07T09:49:24.412Z,1026.39
2016-12-07T09:50:35.388Z,1026.26
2016-12-07T09:51:46.366Z,1026.29
2016-12-07T09:52:57.351Z,1026.26
2016-12-07T09:54:08.327Z,1026.28
2016-12-07T09:55:19.382Z,1026.29
2016-12-07T09:56:30.359Z,1026.26
2016-12-07T09:57:41.543Z,1026.23
2016-12-07T09:58:52.530Z,1026.24
2016-12-07T10:00:03.715Z,1026.22
2016-12-07T10:01:14.747Z,1026.22
2016-12-07T10:02:25.927Z,1026.21
2016-12-07T10:03:36.914Z,1026.19
2016-12-07T10:04:47.894Z,1026.19
2016-12-07T10:05:58.882Z,1026.17
2016-12-07T10:07:10.116Z,1026.19
2016-12-07T10:08:21.094Z,1026.2
2016-12-07T10:09:32.079Z,1026.21
2016-12-07T10:10:43.070Z,1026.17
2016-12-07T10:11:54.248Z,1026.15
2016-12-07T10:13:05.284Z,1026.14
2016-12-07T10:14:16.279Z,1026.13
2016-12-07T10:15:27.265Z,1026.12
2016-12-07T10:16:38.255Z,1026.04
2016-12-07T10:17:49.442Z,1026.04
2016-12-07T10:19:00.505Z,1025.97
2016-12-07T10:20:11.499Z,1026
2016-12-07T10:21:22.478Z,1025.99
2016-12-07T10:22:33.468Z,1026.02
2016-12-07T10:23:44.651Z,1025.98
2016-12-07T10:24:55.684Z,1026
2016-12-07T10:26:06.892Z,1025.99
2016-12-07T10:27:17.905Z,1025.98
2016-12-07T10:28:28.885Z,1026.03
2016-12-07T10:29:39.870Z,1025.95
2016-12-07T10:30:51.102Z,1025.98
2016-12-07T10:32:02.501Z,1026
2016-12-07T10:33:13.481Z,1025.98
2016-12-07T10:34:24.474Z,1025.97
2016-12-07T10:35:35.662Z,1025.93
2016-12-07T10:36:46.686Z,1025.93
2016-12-07T10:37:57.674Z,1025.9
2016-12-07T10:39:08.864Z,1025.91
2016-12-07T10:40:19.845Z,1025.91
2016-12-07T10:41:30.837Z,1025.96
2016-12-07T10:42:42.073Z,1025.93
2016-12-07T10:43:53.083Z,1025.89
2016-12-07T10:45:04.067Z,1025.87
2016-12-07T10:46:15.054Z,1025.84
2016-12-07T10:47:26.036Z,1025.78
2016-12-07T10:48:37.066Z,1025.79
2016-12-07T10:49:48.074Z,1025.8
2016-12-07T10:50:59.060Z,1025.72
2016-12-07T10:52:10.042Z,1025.69
2016-12-07T10:53:21.229Z,1025.64
2016-12-07T10:54:32.465Z,1025.65
2016-12-07T10:55:43.451Z,1025.6
2016-12-07T10:56:54.439Z,1025.67
2016-12-07T10:58:05.865Z,1025.66
2016-12-07T10:59:16.855Z,1025.64
2016-12-07T11:00:27.890Z,1025.67
2016-12-07T11:01:38.877Z,1025.6
2016-12-07T11:02:49.865Z,1025.54
2016-12-07T11:04:00.846Z,1025.56
2016-12-07T11:05:11.841Z,1025.57
2016-12-07T11:06:22.886Z,1025.52
2016-12-07T11:07:33.864Z,1025.49
2016-12-07T11:08:44.849Z,1025.55
2016-12-07T11:09:55.837Z,1025.47
2016-12-07T11:11:07.029Z,1025.5
2016-12-07T11:12:18.268Z,1025.5
2016-12-07T11:13:29.260Z,1025.51
2016-12-07T11:14:40.250Z,1025.51
2016-12-07T11:15:51.244Z,1025.54
2016-12-07T11:17:02.234Z,1025.48
2016-12-07T11:18:13.272Z,1025.49
2016-12-07T11:19:24.461Z,1025.5
2016-12-07T11:20:35.645Z,1025.47
2016-12-07T11:21:46.629Z,1025.5
2016-12-07T11:22:57.616Z,1025.49
2016-12-07T11:24:08.654Z,1025.47
2016-12-07T11:25:19.637Z,1025.41
2016-12-07T11:26:30.640Z,1025.4
2016-12-07T11:27:41.627Z,1025.36
2016-12-07T11:28:52.814Z,1025.3
2016-12-07T11:30:03.857Z,1025.27
2016-12-07T11:31:14.851Z,1025.21
2016-12-07T11:32:26.050Z,1025.15
2016-12-07T11:33:37.041Z,1025.16
2016-12-07T11:34:48.029Z,1025.15
2016-12-07T11:35:59.061Z,1025.1
2016-12-07T11:37:10.046Z,1025.09
2016-12-07T11:38:21.034Z,1025.04
2016-12-07T11:39:32.223Z,1025.03
2016-12-07T11:40:43.411Z,1025.04
2016-12-07T11:41:54.447Z,1025.05
2016-12-07T11:43:05.441Z,1025.02
2016-12-07T11:44:16.621Z,1025.01
2016-12-07T11:45:27.808Z,1025.03
2016-12-07T11:46:38.816Z,1025
2016-12-07T11:47:49.845Z,1024.99
2016-12-07T11:49:00.836Z,1025.03
2016-12-07T11:50:11.820Z,1025.04
2016-12-07T11:51:22.803Z,1025.07
2016-12-07T11:52:33.797Z,1025.1
2016-12-07T11:53:44.839Z,1025.05
2016-12-07T11:54:56.028Z,1025.04
2016-12-07T11:56:07.010Z,1024.98
2016-12-07T11:57:17.999Z,1024.96
2016-12-07T11:58:29.191Z,1024.97
2016-12-07T11:59:40.437Z,1024.94
2016-12-07T12:00:51.425Z,1024.89
2016-12-07T12:02:02.434Z,1024.86
2016-12-07T12:03:13.423Z,1024.82
2016-12-07T12:04:24.419Z,1024.86
2016-12-07T12:05:35.451Z,1024.82
2016-12-07T12:06:46.444Z,1024.82
2016-12-07T12:07:57.425Z,1024.81
2016-12-07T12:09:08.615Z,1024.82
2016-12-07T12:10:19.603Z,1024.82
2016-12-07T12:11:30.643Z,1024.85
2016-12-07T12:12:41.632Z,1024.87
2016-12-07T12:13:52.618Z,1024.82
2016-12-07T12:15:03.811Z,1024.87
2016-12-07T12:16:14.799Z,1024.89
2016-12-07T12:17:25.843Z,1024.85
2016-12-07T12:18:36.823Z,1024.91
2016-12-07T12:19:47.809Z,1024.86
2016-12-07T12:20:58.795Z,1024.82
2016-12-07T12:22:09.774Z,1024.79
2016-12-07T12:23:20.809Z,1024.79
2016-12-07T12:24:31.797Z,1024.79
2016-12-07T12:25:42.788Z,1024.74
2016-12-07T12:26:53.979Z,1024.75
2016-12-07T12:28:04.975Z,1024.79
2016-12-07T12:29:16.006Z,1024.8
2016-12-07T12:30:26.996Z,1024.81
2016-12-07T12:31:38.184Z,1024.8
2016-12-07T12:32:49.178Z,1024.8
2016-12-07T12:34:00.163Z,1024.83
2016-12-07T12:35:11.191Z,1024.83
2016-12-07T12:36:22.389Z,1024.86
2016-12-07T12:37:33.374Z,1024.86
2016-12-07T12:38:44.556Z,1024.86
2016-12-07T12:39:55.946Z,1024.88
2016-12-07T12:41:07.182Z,1024.94
2016-12-07T12:42:18.170Z,1024.88
2016-12-07T12:43:29.356Z,1024.91
2016-12-07T12:44:40.342Z,1024.91
2016-12-07T12:45:51.328Z,1024.95
2016-12-07T12:47:02.565Z,1024.96
2016-12-07T12:48:13.554Z,1024.96
2016-12-07T12:49:24.543Z,1024.94
2016-12-07T12:50:35.729Z,1024.96
2016-12-07T12:51:46.715Z,1024.97
2016-12-07T12:52:57.757Z,1024.94
2016-12-07T12:54:08.745Z,1024.95
2016-12-07T12:55:19.744Z,1024.93
2016-12-07T12:56:30.730Z,1024.87
2016-12-07T12:57:41.922Z,1024.86
2016-12-07T12:58:52.962Z,1024.86
2016-12-07T13:00:03.950Z,1024.9
2016-12-07T13:01:14.951Z,1024.92
2016-12-07T13:02:25.945Z,1024.91
2016-12-07T13:03:36.932Z,1024.9
2016-12-07T13:04:47.963Z,1024.87
2016-12-07T13:05:58.952Z,1024.81
2016-12-07T13:07:09.941Z,1024.83
2016-12-07T13:08:21.127Z,1024.84
2016-12-07T13:09:32.121Z,1024.81
2016-12-07T13:10:43.363Z,1024.8
2016-12-07T13:11:54.349Z,1024.86
2016-12-07T13:13:05.732Z,1024.85
2016-12-07T13:14:16.936Z,1024.86
2016-12-07T13:15:27.955Z,1024.81
2016-12-07T13:16:38.990Z,1024.77
2016-12-07T13:17:49.976Z,1024.77
2016-12-07T13:19:00.963Z,1024.72
2016-12-07T13:20:11.951Z,1024.71
2016-12-07T13:21:22.938Z,1024.72
2016-12-07T13:22:34.168Z,1024.68
2016-12-07T13:23:45.155Z,1024.71
2016-12-07T13:24:56.135Z,1024.7
2016-12-07T13:26:07.327Z,1024.69
2016-12-07T13:27:18.310Z,1024.71
2016-12-07T13:28:29.338Z,1024.63
2016-12-07T13:29:40.325Z,1024.6
2016-12-07T13:30:51.319Z,1024.59
2016-12-07T13:32:02.306Z,1024.6
2016-12-07T13:33:13.497Z,1024.62
2016-12-07T13:34:24.523Z,1024.63
2016-12-07T13:35:35.520Z,1024.65
2016-12-07T13:36:46.503Z,1024.68
2016-12-07T13:37:57.497Z,1024.68
2016-12-07T13:39:08.677Z,1024.71
2016-12-07T13:40:19.713Z,1024.69
2016-12-07T13:41:30.703Z,1024.66
2016-12-07T13:42:41.680Z,1024.57
2016-12-07T13:43:52.666Z,1024.57
2016-12-07T13:45:03.653Z,1024.58
2016-12-07T13:46:14.688Z,1024.53
2016-12-07T13:47:25.667Z,1024.54
2016-12-07T13:48:36.650Z,1024.49
2016-12-07T13:49:47.634Z,1024.51
2016-12-07T13:50:58.652Z,1024.5
2016-12-07T13:52:10.290Z,1024.54
2016-12-07T13:53:21.488Z,1024.54
2016-12-07T13:54:32.495Z,1024.51
2016-12-07T13:55:43.480Z,1024.53
2016-12-07T13:56:54.473Z,1024.56
2016-12-07T13:58:05.510Z,1024.56
2016-12-07T13:59:16.494Z,1024.59
2016-12-07T14:00:27.683Z,1024.57
2016-12-07T14:01:38.663Z,1024.58
2016-12-07T14:02:49.853Z,1024.56
2016-12-07T14:04:00.887Z,1024.53
2016-12-07T14:05:11.905Z,1024.52
2016-12-07T14:06:22.887Z,1024.53
2016-12-07T14:07:33.875Z,1024.56
2016-12-07T14:08:45.062Z,1024.57
2016-12-07T14:09:56.102Z,1024.55
2016-12-07T14:11:07.086Z,1024.54
2016-12-07T14:12:18.264Z,1024.55
2016-12-07T14:13:29.248Z,1024.52
2016-12-07T14:14:40.232Z,1024.56
2016-12-07T14:15:51.469Z,1024.52
2016-12-07T14:17:02.459Z,1024.57
2016-12-07T14:18:13.458Z,1024.56
2016-12-07T14:19:24.442Z,1024.58
2016-12-07T14:20:35.434Z,1024.56
2016-12-07T14:21:46.470Z,1024.53
2016-12-07T14:22:57.447Z,1024.53
2016-12-07T14:24:08.638Z,1024.6